Terminal Aerodrome Forecast
Issued by NWS Cleveland, OH

Home | Current Version | Previous Version | Text Only | Print | Product List | Glossary Off
Versions: 1 2 3 4 5 6 7 8 9 10 11 12 13 14 15 16 17 18 19 20 21 22

149
FTUS41 KCLE 010105 AAA
TAFMFD
TAF AMD
KMFD 010105Z 0101/0124 27011KT 6SM -SHRA SCT025 OVC040
      TEMPO 0101/0103 5SM -SHRA BKN015
     FM010400 26012G18KT P6SM SCT015 OVC025=

USA.gov is the U.S. government's official web portal to all federal, state and local government web resources and services.